Time;durP1;ratioP1;P1;durP2;ratioP2;P2;SDS_P1;SDS_P2;PMS_P1;PMS_P2;Temp;Humidity;BMP_temperature;BMP_pressure;BME280_temperature;BME280_humidity;BME280_pressure;Samples;Min_cycle;Max_cycle;Signal;HPM_P1;HPM_P2
2023/07/27 00:01:38;;;;;;;1.97;1.60;;;14.80;99.90;;;;;;5128566;27;20639;-81
2023/07/27 00:04:05;;;;;;;1.60;1.50;;;14.80;99.90;;;;;;5128194;27;20292;-80
2023/07/27 00:06:32;;;;;;;1.70;1.60;;;14.90;99.90;;;;;;5128473;27;20201;-81
2023/07/27 00:08:59;;;;;;;1.40;1.30;;;14.90;99.90;;;;;;5128058;27;20210;-81
2023/07/27 00:11:27;;;;;;;1.40;1.30;;;14.90;99.90;;;;;;5128070;27;20198;-80
2023/07/27 00:13:54;;;;;;;1.90;1.80;;;14.80;99.90;;;;;;5125482;27;20209;-81
2023/07/27 00:16:20;;;;;;;1.80;1.70;;;14.80;99.90;;;;;;5110759;27;20577;-81
2023/07/27 00:18:47;;;;;;;1.80;1.70;;;14.70;99.90;;;;;;5131244;27;20209;-80
2023/07/27 00:21:14;;;;;;;1.90;1.80;;;14.80;99.90;;;;;;5148723;27;20303;-80
2023/07/27 00:23:41;;;;;;;1.70;1.70;;;14.80;99.90;;;;;;5148627;27;20205;-80
2023/07/27 00:26:08;;;;;;;2.00;1.90;;;14.70;99.90;;;;;;5148538;27;20201;-81
2023/07/27 00:28:36;;;;;;;1.87;1.73;;;14.60;99.90;;;;;;5148278;27;20299;-81
2023/07/27 00:31:03;;;;;;;2.03;1.83;;;14.70;99.90;;;;;;5143978;27;20248;-80
2023/07/27 00:33:30;;;;;;;2.20;1.97;;;14.80;99.90;;;;;;5127481;27;20297;-81
2023/07/27 00:35:57;;;;;;;1.80;1.70;;;14.90;99.90;;;;;;5127341;27;20201;-81
2023/07/27 00:38:24;;;;;;;1.83;1.73;;;15.00;99.90;;;;;;5127615;27;20209;-81
2023/07/27 00:40:51;;;;;;;1.93;1.70;;;15.10;99.90;;;;;;5112891;27;20245;-81
2023/07/27 00:43:18;;;;;;;2.03;1.63;;;14.90;99.90;;;;;;5106641;28;20830;-82
2023/07/27 00:45:47;;;;;;;2.20;2.10;;;14.90;99.90;;;;;;5106565;28;20324;-81
2023/07/27 00:48:14;;;;;;;2.07;1.87;;;15.00;99.90;;;;;;5105740;28;20634;-81
2023/07/27 00:50:41;;;;;;;1.93;1.80;;;14.90;99.90;;;;;;5145440;27;20323;-81
2023/07/27 00:53:09;;;;;;;1.90;1.80;;;14.80;99.90;;;;;;5148612;27;20205;-82
2023/07/27 00:55:37;;;;;;;1.90;1.80;;;14.70;99.90;;;;;;5143561;27;20306;-81
2023/07/27 00:58:04;;;;;;;2.27;1.80;;;14.80;99.90;;;;;;5127607;27;20229;-78
2023/07/27 01:00:31;;;;;;;1.67;1.57;;;14.80;99.90;;;;;;5126992;27;20201;-78
2023/07/27 01:03:00;;;;;;;2.27;2.17;;;14.90;99.90;;;;;;5126452;27;20205;-78
2023/07/27 01:05:28;;;;;;;1.60;1.50;;;14.90;99.90;;;;;;5127033;27;20292;-78
2023/07/27 01:07:55;;;;;;;2.10;1.93;;;15.00;99.90;;;;;;5125630;27;20202;-81
2023/07/27 01:10:29;;;;;;;3.13;1.80;;;14.80;99.90;;;;;;5127246;27;20241;-82
2023/07/27 01:13:03;;;;;;;1.90;1.80;;;14.70;99.90;;;;;;5127252;27;20289;-81
2023/07/27 01:15:33;;;;;;;2.00;1.90;;;14.60;99.90;;;;;;5126746;27;20230;-81
2023/07/27 01:18:07;;;;;;;2.20;2.00;;;14.70;99.90;;;;;;5127025;27;20221;-82
2023/07/27 01:20:38;;;;;;;2.10;2.00;;;14.60;99.90;;;;;;5126421;27;20194;-80
2023/07/27 01:23:33;;;;;;;2.37;2.10;;;14.50;99.90;;;;;;5127010;27;20286;-78
2023/07/27 01:26:26;;;;;;;2.10;2.00;;;14.40;99.90;;;;;;5127447;27;20193;-79
2023/07/27 01:29:07;;;;;;;2.33;2.23;;;14.40;99.90;;;;;;5106310;28;20277;-79
2023/07/27 01:31:41;;;;;;;2.43;2.00;;;14.40;99.90;;;;;;5106769;28;20971;-79
2023/07/27 01:34:15;;;;;;;2.00;1.90;;;14.50;99.90;;;;;;5106467;28;20194;-79
2023/07/27 01:36:42;;;;;;;2.40;2.20;;;14.50;99.90;;;;;;5112956;27;20216;-79
2023/07/27 01:39:14;;;;;;;1.93;1.70;;;14.60;99.90;;;;;;5105951;28;20206;-79
2023/07/27 01:41:42;;;;;;;2.07;1.97;;;14.70;99.90;;;;;;5106195;28;20194;-79
2023/07/27 01:44:11;;;;;;;2.33;2.20;;;14.80;99.90;;;;;;5105726;28;20328;-79
2023/07/27 01:46:40;;;;;;;1.97;1.87;;;14.90;99.90;;;;;;5106324;28;20237;-80
2023/07/27 01:49:09;;;;;;;2.20;2.10;;;14.90;99.90;;;;;;5105527;28;20206;-80
2023/07/27 01:51:39;;;;;;;2.13;2.03;;;14.90;99.90;;;;;;5105796;28;20233;-80
2023/07/27 01:54:08;;;;;;;1.90;1.77;;;15.00;99.90;;;;;;5106235;28;20305;-80
2023/07/27 01:56:37;;;;;;;2.60;2.23;;;15.00;99.90;;;;;;5112289;27;20300;-80
2023/07/27 01:59:06;;;;;;;2.30;2.10;;;14.90;99.90;;;;;;5125469;27;20734;-80
2023/07/27 02:01:34;;;;;;;2.60;2.40;;;14.90;99.90;;;;;;5126454;28;20565;-80
2023/07/27 02:04:04;;;;;;;2.67;2.00;;;14.80;99.90;;;;;;5125252;28;20292;-79
2023/07/27 02:06:31;;;;;;;2.20;2.10;;;14.90;99.90;;;;;;5105558;28;20229;-80
2023/07/27 02:08:58;;;;;;;2.33;2.13;;;14.90;99.90;;;;;;5105705;28;20297;-80
2023/07/27 02:11:26;;;;;;;2.20;2.10;;;14.90;99.90;;;;;;5106460;28;20849;-81
2023/07/27 02:13:59;;;;;;;2.37;2.27;;;14.40;99.90;;;;;;5126080;28;20297;-80
2023/07/27 02:16:35;;;;;;;2.30;2.20;;;14.30;99.90;;;;;;5125492;28;20250;-80
2023/07/27 02:19:06;;;;;;;3.57;2.60;;;14.10;99.90;;;;;;5116989;27;20211;-69
2023/07/27 02:21:33;;;;;;;2.70;2.40;;;13.80;99.90;;;;;;5114434;27;20209;-79
2023/07/27 02:24:01;;;;;;;4.30;2.40;;;13.90;99.90;;;;;;5107282;28;20293;-80
2023/07/27 02:26:28;;;;;;;2.60;2.40;;;13.80;99.90;;;;;;5115370;28;20371;-83
2023/07/27 02:28:56;;;;;;;2.60;2.40;;;13.70;99.90;;;;;;5117388;28;20285;-80
2023/07/27 02:31:23;;;;;;;2.33;2.23;;;13.60;99.90;;;;;;5104952;28;20238;-79
2023/07/27 02:33:50;;;;;;;3.23;2.70;;;13.60;99.90;;;;;;5104919;28;20717;-80
2023/07/27 02:36:18;;;;;;;3.67;2.40;;;13.60;99.90;;;;;;5104858;28;20209;-80
2023/07/27 02:38:45;;;;;;;3.00;2.30;;;13.60;99.90;;;;;;5104003;28;20205;-80
2023/07/27 02:41:12;;;;;;;2.83;2.63;;;13.70;99.90;;;;;;5104502;28;20206;-80
2023/07/27 02:43:40;;;;;;;2.50;2.40;;;13.60;99.90;;;;;;5109758;28;20312;-80
2023/07/27 02:46:08;;;;;;;2.33;2.10;;;13.70;99.90;;;;;;5124459;28;20241;-80
2023/07/27 02:48:35;;;;;;;2.50;2.40;;;13.80;99.90;;;;;;5117399;27;20246;-81
2023/07/27 02:51:02;;;;;;;2.53;2.43;;;13.80;99.90;;;;;;5115652;28;20313;-81
2023/07/27 02:53:30;;;;;;;2.37;2.27;;;13.80;99.90;;;;;;5104484;28;20255;-81
2023/07/27 02:55:58;;;;;;;3.03;2.20;;;13.90;99.90;;;;;;5104680;28;20202;-80
2023/07/27 02:58:26;;;;;;;2.77;2.40;;;14.00;99.90;;;;;;5104496;28;20202;-80
2023/07/27 03:00:54;;;;;;;2.73;2.60;;;14.00;99.90;;;;;;5109402;28;20198;-81
2023/07/27 03:03:21;;;;;;;2.43;2.33;;;13.90;99.90;;;;;;5109640;28;20243;-81
2023/07/27 03:05:48;;;;;;;3.30;2.37;;;14.00;99.90;;;;;;5115929;28;20571;-81
2023/07/27 03:08:15;;;;;;;2.70;2.60;;;14.00;99.90;;;;;;5125771;28;20228;-80
2023/07/27 03:10:43;;;;;;;2.40;2.20;;;14.10;99.90;;;;;;5127470;27;20225;-80
2023/07/27 03:13:10;;;;;;;2.87;2.70;;;14.20;99.90;;;;;;5129369;27;20320;-80
2023/07/27 03:15:40;;;;;;;3.80;2.50;;;14.00;99.90;;;;;;5128756;27;20293;-80
2023/07/27 03:18:07;;;;;;;2.40;2.30;;;14.00;99.90;;;;;;5129372;27;20583;-80
2023/07/27 03:20:39;;;;;;;2.93;2.73;;;14.10;99.90;;;;;;5129304;27;20300;-81
2023/07/27 03:23:06;;;;;;;2.53;2.33;;;14.10;99.90;;;;;;5129520;27;20202;-81
2023/07/27 03:25:33;;;;;;;3.37;2.57;;;14.00;99.90;;;;;;5129883;27;20495;-80
2023/07/27 03:28:02;;;;;;;3.00;2.77;;;14.10;99.90;;;;;;5130373;27;20668;-81
2023/07/27 03:30:28;;;;;;;3.43;3.10;;;13.90;99.90;;;;;;5134282;27;20289;-80
2023/07/27 03:32:55;;;;;;;2.53;2.43;;;13.90;99.90;;;;;;5129601;27;20258;-81
2023/07/27 03:35:22;;;;;;;2.57;2.47;;;13.90;99.90;;;;;;5129265;27;20245;-81
2023/07/27 03:37:51;;;;;;;3.97;2.73;;;13.80;99.90;;;;;;5130070;27;20295;-80
2023/07/27 03:40:18;;;;;;;3.17;2.90;;;13.90;99.90;;;;;;5129657;27;20216;-81
2023/07/27 03:42:45;;;;;;;3.13;2.90;;;13.70;99.90;;;;;;5129193;27;20221;-81
2023/07/27 03:45:14;;;;;;;3.17;2.97;;;13.80;99.90;;;;;;5128502;27;20667;-80
2023/07/27 03:47:41;;;;;;;2.97;2.77;;;13.60;99.90;;;;;;5129455;27;20197;-80
2023/07/27 03:50:09;;;;;;;3.20;2.90;;;13.60;99.90;;;;;;5114488;27;20309;-81
2023/07/27 03:52:36;;;;;;;3.13;2.93;;;13.60;99.90;;;;;;5109187;28;20209;-80
2023/07/27 03:55:03;;;;;;;3.23;3.00;;;13.50;99.90;;;;;;5109325;28;20206;-80
2023/07/27 03:57:29;;;;;;;2.87;2.67;;;13.70;99.90;;;;;;5108938;28;20338;-81
2023/07/27 03:59:56;;;;;;;3.03;2.83;;;13.70;99.90;;;;;;5107904;28;20256;-81
2023/07/27 04:02:27;;;;;;;2.97;2.67;;;13.80;99.90;;;;;;5108722;28;20767;-81
2023/07/27 04:04:54;;;;;;;3.17;2.87;;;13.90;99.90;;;;;;5108339;28;20202;-80
2023/07/27 04:07:21;;;;;;;2.83;2.70;;;14.00;99.90;;;;;;5107906;28;20210;-81
2023/07/27 04:09:48;;;;;;;2.80;2.60;;;14.10;99.90;;;;;;5108138;28;20242;-80
2023/07/27 04:12:15;;;;;;;3.43;3.13;;;14.10;99.90;;;;;;5107147;28;20273;-81
2023/07/27 04:14:42;;;;;;;3.13;2.67;;;14.20;99.90;;;;;;5107295;28;20546;-81
2023/07/27 04:17:10;;;;;;;3.00;2.80;;;14.20;99.90;;;;;;5107253;28;20749;-80
2023/07/27 04:19:38;;;;;;;3.10;2.80;;;14.30;99.90;;;;;;5121909;27;20205;-80
2023/07/27 04:22:05;;;;;;;2.90;2.70;;;14.40;99.90;;;;;;5128075;27;20241;-80
2023/07/27 04:24:32;;;;;;;2.60;2.50;;;14.50;99.90;;;;;;5127889;27;20197;-80
2023/07/27 04:26:59;;;;;;;3.10;2.90;;;14.60;99.90;;;;;;5109976;27;20216;-80
2023/07/27 04:29:26;;;;;;;2.73;2.60;;;14.80;99.90;;;;;;5107646;28;20226;-80
2023/07/27 04:31:52;;;;;;;3.27;3.07;;;14.80;99.90;;;;;;5107476;28;20272;-81
2023/07/27 04:34:19;;;;;;;3.57;3.00;;;14.90;99.90;;;;;;5107252;28;20241;-81
2023/07/27 04:36:48;;;;;;;2.90;2.70;;;15.00;99.90;;;;;;5107817;28;20652;-80
2023/07/27 04:39:15;;;;;;;2.80;2.60;;;15.10;99.90;;;;;;5106840;28;20206;-80
2023/07/27 04:41:42;;;;;;;3.03;2.77;;;15.10;99.90;;;;;;5135596;27;20297;-80
2023/07/27 04:44:09;;;;;;;3.00;2.80;;;15.20;99.90;;;;;;5131554;27;20297;-80
2023/07/27 04:46:36;;;;;;;4.53;3.03;;;15.20;99.90;;;;;;5127529;27;20206;-80
2023/07/27 04:49:03;;;;;;;3.20;3.00;;;15.30;99.90;;;;;;5126714;27;20292;-80
2023/07/27 04:51:30;;;;;;;4.03;2.90;;;15.30;99.90;;;;;;5114875;27;20314;-80
2023/07/27 04:53:58;;;;;;;3.67;3.13;;;15.40;99.90;;;;;;5118025;27;20265;-81
2023/07/27 04:56:25;;;;;;;5.37;3.13;;;15.40;99.90;;;;;;5127338;27;20747;-80
2023/07/27 04:58:52;;;;;;;3.03;2.83;;;15.40;99.90;;;;;;5127501;27;20718;-81
2023/07/27 05:01:19;;;;;;;3.53;3.33;;;15.40;99.90;;;;;;5127356;27;20273;-80
2023/07/27 05:03:46;;;;;;;3.27;3.07;;;15.40;99.90;;;;;;5127614;27;21178;-80
2023/07/27 05:06:13;;;;;;;3.47;3.17;;;15.40;99.90;;;;;;5112152;27;20222;-80
2023/07/27 05:08:40;;;;;;;3.90;3.60;;;15.40;99.90;;;;;;5106961;28;20214;-80
2023/07/27 05:11:08;;;;;;;4.10;3.63;;;15.50;99.90;;;;;;5120076;27;20290;-80
2023/07/27 05:13:35;;;;;;;3.47;3.17;;;15.50;99.90;;;;;;5127203;27;20215;-80
2023/07/27 05:16:02;;;;;;;3.50;3.30;;;15.50;99.90;;;;;;5111012;27;20218;-80
2023/07/27 05:18:29;;;;;;;3.40;3.20;;;15.50;99.90;;;;;;5107135;27;20305;-80
2023/07/27 05:20:57;;;;;;;3.10;2.90;;;15.50;99.90;;;;;;5131264;27;20261;-80
2023/07/27 05:23:24;;;;;;;3.30;3.10;;;15.40;99.90;;;;;;5108966;27;20324;-80
2023/07/27 05:25:51;;;;;;;3.80;3.50;;;15.40;99.90;;;;;;5106398;28;20216;-80
2023/07/27 05:28:20;;;;;;;3.73;3.53;;;15.50;99.90;;;;;;5106065;28;20408;-80
2023/07/27 05:30:47;;;;;;;4.67;3.30;;;15.50;99.90;;;;;;5105929;28;20225;-80
2023/07/27 05:33:14;;;;;;;3.53;3.23;;;15.60;99.90;;;;;;5105913;28;20202;-80
2023/07/27 05:35:41;;;;;;;3.00;2.77;;;15.60;99.90;;;;;;5106658;28;20210;-80
2023/07/27 05:38:08;;;;;;;2.97;2.77;;;15.70;99.90;;;;;;5121741;27;20228;-80
2023/07/27 05:40:37;;;;;;;3.80;3.40;;;15.70;99.90;;;;;;5126607;27;20212;-80
2023/07/27 05:43:04;;;;;;;3.20;3.00;;;15.80;99.90;;;;;;5126524;27;20197;-80
2023/07/27 05:45:33;;;;;;;3.73;3.20;;;15.80;99.90;;;;;;5126750;27;20335;-81
2023/07/27 05:48:00;;;;;;;4.80;3.30;;;15.80;99.90;;;;;;5125636;27;20328;-80
2023/07/27 05:50:26;;;;;;;3.63;2.90;;;15.90;99.90;;;;;;5126839;27;20208;-79
2023/07/27 05:52:53;;;;;;;3.13;2.93;;;15.90;99.90;;;;;;5105615;28;20321;-82
2023/07/27 05:55:20;;;;;;;3.17;2.97;;;16.00;99.90;;;;;;5105610;28;20293;-80
2023/07/27 05:57:47;;;;;;;3.57;3.27;;;16.00;99.90;;;;;;5106010;28;20306;-80
2023/07/27 06:00:15;;;;;;;3.00;2.80;;;16.10;99.90;;;;;;5105321;28;20237;-80
2023/07/27 06:02:43;;;;;;;3.40;3.10;;;16.10;99.90;;;;;;5106129;28;20636;-80
2023/07/27 06:05:11;;;;;;;3.27;3.07;;;16.20;99.90;;;;;;5105883;28;20210;-80
2023/07/27 06:07:37;;;;;;;3.97;3.23;;;16.20;99.90;;;;;;5106155;28;20285;-80
2023/07/27 06:10:05;;;;;;;2.47;2.37;;;16.20;99.90;;;;;;5111095;28;20228;-80
2023/07/27 06:12:32;;;;;;;3.43;3.23;;;16.30;99.90;;;;;;5126106;28;20232;-80
2023/07/27 06:14:59;;;;;;;4.63;2.97;;;16.30;99.90;;;;;;5126799;28;20213;-81
2023/07/27 06:17:27;;;;;;;2.83;2.57;;;16.30;99.90;;;;;;5126425;27;20233;-81
2023/07/27 06:19:55;;;;;;;3.33;3.10;;;16.30;99.90;;;;;;5113714;28;20241;-81
2023/07/27 06:22:22;;;;;;;3.70;2.97;;;16.40;99.90;;;;;;5106208;28;20202;-80
2023/07/27 06:24:49;;;;;;;3.10;2.90;;;16.40;99.90;;;;;;5105639;28;20206;-80
2023/07/27 06:27:16;;;;;;;3.23;3.03;;;16.50;99.90;;;;;;5105595;28;20210;-80
2023/07/27 06:29:43;;;;;;;3.00;2.70;;;16.50;99.90;;;;;;5105240;28;20222;-80
2023/07/27 06:32:10;;;;;;;3.00;2.77;;;16.50;99.90;;;;;;5105056;28;20770;-79
2023/07/27 06:34:37;;;;;;;3.37;3.03;;;16.50;99.90;;;;;;5140264;27;20692;-80
2023/07/27 06:37:07;;;;;;;5.07;3.00;;;16.60;99.90;;;;;;5146861;27;20287;-80
2023/07/27 06:39:34;;;;;;;2.97;2.67;;;16.60;99.90;;;;;;5146586;27;20674;-81
2023/07/27 06:42:00;;;;;;;3.40;3.20;;;16.60;99.90;;;;;;5146365;27;20205;-80
2023/07/27 06:44:27;;;;;;;3.20;3.00;;;16.70;99.90;;;;;;5146526;27;20295;-80
2023/07/27 06:46:54;;;;;;;3.97;3.10;;;16.70;99.90;;;;;;5135535;27;20240;-80
2023/07/27 06:49:21;;;;;;;3.30;3.10;;;16.70;99.90;;;;;;5122157;27;20665;-80
2023/07/27 06:51:48;;;;;;;2.80;2.70;;;16.70;99.90;;;;;;5108943;28;20777;-80
2023/07/27 06:54:18;;;;;;;3.40;3.10;;;16.70;99.90;;;;;;5109377;28;20289;-81
2023/07/27 06:56:45;;;;;;;3.40;3.10;;;16.70;99.90;;;;;;5109320;28;20213;-80
2023/07/27 06:59:12;;;;;;;3.70;3.40;;;16.80;99.90;;;;;;5108491;28;20292;-80
2023/07/27 07:01:39;;;;;;;5.07;3.40;;;16.80;99.90;;;;;;5109453;28;20261;-80
2023/07/27 07:04:06;;;;;;;3.20;3.00;;;16.80;99.90;;;;;;5109259;28;20202;-80
2023/07/27 07:06:34;;;;;;;3.43;3.23;;;16.80;99.90;;;;;;5116111;27;20213;-80
2023/07/27 07:09:00;;;;;;;3.47;3.13;;;16.90;99.90;;;;;;5129719;27;20940;-80
2023/07/27 07:11:29;;;;;;;2.70;2.50;;;16.90;99.90;;;;;;5129930;27;20679;-80
2023/07/27 07:13:55;;;;;;;3.30;2.80;;;17.00;99.90;;;;;;5127397;27;20285;-79
2023/07/27 07:16:22;;;;;;;3.67;3.20;;;17.10;99.90;;;;;;5109209;28;20732;-80
2023/07/27 07:18:49;;;;;;;3.83;3.50;;;17.20;99.90;;;;;;5112697;27;20678;-80
2023/07/27 07:21:16;;;;;;;3.17;2.97;;;17.30;99.90;;;;;;5129690;27;20208;-80
2023/07/27 07:23:43;;;;;;;3.30;3.10;;;17.40;99.90;;;;;;5129870;27;20292;-80
2023/07/27 07:26:10;;;;;;;2.80;2.70;;;17.50;99.90;;;;;;5129173;27;20927;-80
2023/07/27 07:28:38;;;;;;;3.00;2.80;;;17.50;99.90;;;;;;5129234;27;20201;-80
2023/07/27 07:31:06;;;;;;;2.97;2.77;;;17.60;99.90;;;;;;5128721;27;20989;-80
2023/07/27 07:33:33;;;;;;;3.23;3.03;;;17.60;99.90;;;;;;5128250;27;20687;-80
2023/07/27 07:36:00;;;;;;;3.30;3.10;;;17.60;99.90;;;;;;5128729;27;20211;-80
2023/07/27 07:38:27;;;;;;;3.07;2.80;;;17.60;99.90;;;;;;5128663;27;20600;-80
2023/07/27 07:40:53;;;;;;;5.27;3.23;;;17.60;99.90;;;;;;5128789;27;20270;-80
2023/07/27 07:43:20;;;;;;;3.30;3.00;;;17.60;99.90;;;;;;5112636;27;20305;-80
2023/07/27 07:45:48;;;;;;;3.97;3.20;;;17.60;99.90;;;;;;5108365;28;20790;-80
2023/07/27 07:48:15;;;;;;;4.50;3.00;;;17.60;99.90;;;;;;5108147;28;20640;-80
2023/07/27 07:50:42;;;;;;;3.03;2.77;;;17.60;99.90;;;;;;5127944;27;20213;-80
2023/07/27 07:53:10;;;;;;;3.47;3.17;;;17.70;99.90;;;;;;5128786;27;20730;-80
2023/07/27 07:55:37;;;;;;;3.10;2.80;;;17.70;99.90;;;;;;5128791;27;20647;-82
2023/07/27 07:58:04;;;;;;;3.37;2.90;;;17.60;99.90;;;;;;5128686;27;20210;-80
2023/07/27 08:00:31;;;;;;;2.70;2.53;;;17.60;99.90;;;;;;5128115;27;21130;-80
2023/07/27 08:02:59;;;;;;;2.70;2.50;;;17.60;99.90;;;;;;5128292;27;20197;-81
2023/07/27 08:05:26;;;;;;;3.63;3.33;;;17.70;99.90;;;;;;5128160;27;20296;-80
2023/07/27 08:07:53;;;;;;;3.13;2.80;;;17.70;99.90;;;;;;5128426;27;20633;-80
2023/07/27 08:10:20;;;;;;;3.60;2.70;;;17.60;99.90;;;;;;5128027;27;20206;-80
2023/07/27 08:12:49;;;;;;;3.63;3.33;;;17.60;99.90;;;;;;5127921;27;20844;-79
2023/07/27 08:15:17;;;;;;;3.07;2.87;;;17.70;99.90;;;;;;5127787;27;20209;-80
2023/07/27 08:17:44;;;;;;;3.60;3.30;;;17.70;99.90;;;;;;5128267;27;20549;-80
2023/07/27 08:20:13;;;;;;;3.40;3.07;;;17.80;99.90;;;;;;5142989;27;20212;-80
2023/07/27 08:22:40;;;;;;;4.13;3.10;;;17.80;99.90;;;;;;5148539;27;20232;-80
2023/07/27 08:25:07;;;;;;;2.93;2.63;;;17.90;99.90;;;;;;5148416;27;20297;-79
2023/07/27 08:27:35;;;;;;;2.90;2.67;;;17.90;99.90;;;;;;5127905;27;20308;-81
2023/07/27 08:30:02;;;;;;;4.37;3.03;;;18.00;99.90;;;;;;5127640;27;20234;-80
2023/07/27 08:32:29;;;;;;;3.57;3.03;;;18.00;99.90;;;;;;5127888;27;20383;-80
2023/07/27 08:34:56;;;;;;;4.33;2.93;;;18.10;99.90;;;;;;5127614;27;20216;-80
2023/07/27 08:37:24;;;;;;;3.40;3.10;;;18.10;99.90;;;;;;5128073;27;20229;-81
2023/07/27 08:39:51;;;;;;;3.63;3.13;;;18.20;99.90;;;;;;5109675;27;20217;-81
2023/07/27 08:42:20;;;;;;;6.30;3.20;;;18.30;99.90;;;;;;5107191;28;20263;-81
2023/07/27 08:44:47;;;;;;;4.33;2.87;;;18.30;99.90;;;;;;5106769;28;20712;-81
2023/07/27 08:47:15;;;;;;;3.47;3.17;;;18.30;99.90;;;;;;5106622;28;20296;-80
2023/07/27 08:49:43;;;;;;;2.73;2.57;;;18.40;99.90;;;;;;5128831;27;20213;-81
2023/07/27 08:52:13;;;;;;;3.10;2.83;;;18.40;99.90;;;;;;5130146;27;20264;-80
2023/07/27 08:54:41;;;;;;;3.00;2.80;;;18.50;99.90;;;;;;5127910;27;20213;-80
2023/07/27 08:57:08;;;;;;;2.90;2.70;;;18.50;99.90;;;;;;5127636;27;20654;-80
2023/07/27 08:59:35;;;;;;;2.93;2.73;;;18.50;99.90;;;;;;5127203;27;20304;-80
2023/07/27 09:02:02;;;;;;;3.10;2.90;;;18.60;99.90;;;;;;5128285;27;20297;-80
2023/07/27 09:04:29;;;;;;;3.13;2.83;;;18.60;99.90;;;;;;5128574;27;20258;-81
2023/07/27 09:06:56;;;;;;;2.50;2.37;;;18.60;99.90;;;;;;5122098;27;20206;-80
2023/07/27 09:09:25;;;;;;;3.57;3.27;;;18.60;99.90;;;;;;5107116;28;20210;-80
2023/07/27 09:11:54;;;;;;;2.97;2.73;;;18.50;99.90;;;;;;5107587;28;20234;-80
2023/07/27 09:14:21;;;;;;;4.10;2.83;;;18.50;99.90;;;;;;5107205;28;20206;-80
2023/07/27 09:16:49;;;;;;;3.20;3.00;;;18.60;99.90;;;;;;5107318;28;20297;-79
2023/07/27 09:19:18;;;;;;;3.70;3.33;;;18.60;99.90;;;;;;5121956;27;20288;-80
2023/07/27 09:21:48;;;;;;;3.30;2.90;;;18.70;99.90;;;;;;5144770;27;20208;-80
2023/07/27 09:24:16;;;;;;;5.40;3.47;;;18.70;99.90;;;;;;5127908;27;21065;-80
2023/07/27 09:26:45;;;;;;;4.07;2.73;;;18.80;99.90;;;;;;5127312;27;20736;-79
2023/07/27 09:29:14;;;;;;;3.20;2.80;;;18.80;99.90;;;;;;5128011;27;20894;-80
2023/07/27 09:31:45;;;;;;;3.23;3.00;;;18.80;99.90;;;;;;5128475;27;20292;-80
2023/07/27 09:34:12;;;;;;;2.73;2.53;;;18.80;99.90;;;;;;5124998;27;20221;-81
2023/07/27 09:36:40;;;;;;;3.10;2.90;;;18.70;99.90;;;;;;5106628;28;20213;-80
2023/07/27 09:39:07;;;;;;;2.93;2.73;;;18.60;99.90;;;;;;5106729;28;21005;-81
2023/07/27 09:41:34;;;;;;;4.07;3.20;;;18.50;99.90;;;;;;5107320;28;20218;-79
2023/07/27 09:44:02;;;;;;;3.10;2.73;;;18.30;99.90;;;;;;5106483;28;20292;-80
2023/07/27 09:46:30;;;;;;;3.07;2.50;;;18.30;99.90;;;;;;5107755;28;20214;-80
2023/07/27 09:48:58;;;;;;;3.80;3.30;;;18.20;99.90;;;;;;5111462;27;20266;-81
2023/07/27 09:51:27;;;;;;;3.00;2.80;;;18.20;99.90;;;;;;5115757;27;20213;-81
2023/07/27 09:53:55;;;;;;;2.70;2.60;;;18.10;99.90;;;;;;5106368;28;20885;-81
2023/07/27 09:56:23;;;;;;;2.70;2.50;;;18.30;99.90;;;;;;5107005;28;20202;-79
2023/07/27 09:58:50;;;;;;;2.83;2.63;;;18.30;99.90;;;;;;5106311;28;20250;-80
2023/07/27 10:01:17;;;;;;;2.90;2.70;;;18.40;99.90;;;;;;5106264;28;20305;-79
2023/07/27 10:03:46;;;;;;;2.77;2.57;;;18.50;99.90;;;;;;5119425;27;20875;-80
2023/07/27 10:06:15;;;;;;;3.80;2.63;;;18.50;99.90;;;;;;5106041;28;20505;-80
2023/07/27 10:08:43;;;;;;;2.40;2.20;;;18.60;99.90;;;;;;5106681;28;20210;-80
2023/07/27 10:11:10;;;;;;;4.17;2.40;;;18.70;99.90;;;;;;5106424;28;20206;-80
2023/07/27 10:13:40;;;;;;;3.83;2.70;;;18.70;99.90;;;;;;5105818;28;20233;-80
2023/07/27 10:16:10;;;;;;;3.03;2.83;;;18.80;99.90;;;;;;5106763;28;20293;-80
2023/07/27 10:18:41;;;;;;;2.60;2.40;;;18.80;99.90;;;;;;5124388;27;20208;-81
2023/07/27 10:21:36;;;;;;;2.50;2.30;;;18.90;99.90;;;;;;5152015;27;20647;-81
2023/07/27 10:24:04;;;;;;;2.70;2.50;;;18.90;99.90;;;;;;5091619;27;20235;-80
2023/07/27 10:26:50;;;;;;;3.33;2.50;;;19.00;99.90;;;;;;5152112;27;20208;-80
2023/07/27 10:29:19;;;;;;;2.80;2.37;;;19.00;99.90;;;;;;5151098;27;20296;-81
2023/07/27 10:31:58;;;;;;;2.87;2.60;;;19.10;99.90;;;;;;5137885;27;20205;-81
2023/07/27 10:34:27;;;;;;;5.43;2.80;;;19.00;99.90;;;;;;5131173;27;20311;-80
2023/07/27 10:36:57;;;;;;;3.43;2.73;;;18.80;99.90;;;;;;5130495;27;20239;-80
2023/07/27 10:39:27;;;;;;;2.57;2.30;;;18.80;99.90;;;;;;5130786;27;20201;-80
2023/07/27 10:42:06;;;;;;;3.27;2.40;;;18.80;99.90;;;;;;5130345;27;20251;-81
2023/07/27 10:44:43;;;;;;;3.70;2.60;;;18.80;99.90;;;;;;5130183;27;20280;-79
2023/07/27 10:47:12;;;;;;;2.87;2.63;;;18.70;99.90;;;;;;5130598;27;20281;-80
2023/07/27 10:49:40;;;;;;;3.33;2.50;;;18.70;99.90;;;;;;5119883;27;20202;-80
2023/07/27 10:52:09;;;;;;;2.93;2.30;;;18.80;99.90;;;;;;5109715;28;20209;-80
2023/07/27 10:54:40;;;;;;;3.20;3.00;;;18.80;99.90;;;;;;5110180;28;20226;-80
2023/07/27 10:57:09;;;;;;;2.80;2.60;;;18.90;99.90;;;;;;5124709;27;20212;-80
2023/07/27 10:59:38;;;;;;;3.60;2.60;;;19.00;99.90;;;;;;5116264;27;20319;-80
2023/07/27 11:02:10;;;;;;;2.90;2.70;;;19.10;99.90;;;;;;5110867;27;20206;-81
2023/07/27 11:04:39;;;;;;;3.43;2.40;;;19.20;99.90;;;;;;5131338;27;20296;-83
2023/07/27 11:07:09;;;;;;;3.67;3.20;;;19.30;99.90;;;;;;5131854;27;20244;-81
2023/07/27 11:09:36;;;;;;;3.57;2.60;;;19.30;99.90;;;;;;5131176;27;20278;-81
2023/07/27 11:12:04;;;;;;;3.73;2.80;;;19.20;99.90;;;;;;5131083;27;20231;-80
2023/07/27 11:14:31;;;;;;;3.20;3.00;;;19.10;99.90;;;;;;5130737;27;21056;-80
2023/07/27 11:16:58;;;;;;;3.30;3.00;;;19.10;99.90;;;;;;5130304;27;20206;-80
2023/07/27 11:19:26;;;;;;;4.30;3.00;;;19.00;99.90;;;;;;5130033;27;20213;-80
2023/07/27 11:21:55;;;;;;;3.70;3.40;;;19.00;99.90;;;;;;5130609;27;20262;-80
2023/07/27 11:24:24;;;;;;;3.80;3.10;;;19.00;99.90;;;;;;5130859;27;20209;-81
2023/07/27 11:26:51;;;;;;;3.23;2.90;;;19.00;99.90;;;;;;5126599;27;20314;-80
2023/07/27 11:29:18;;;;;;;4.13;3.00;;;19.10;99.90;;;;;;5110171;28;20222;-80
2023/07/27 11:31:55;;;;;;;3.10;2.90;;;19.00;99.90;;;;;;5108421;28;20248;-81
2023/07/27 11:34:24;;;;;;;3.17;2.90;;;18.90;99.90;;;;;;5109457;28;20236;-80
2023/07/27 11:36:57;;;;;;;4.77;3.17;;;18.90;99.90;;;;;;5109457;28;20611;-81
2023/07/27 11:39:27;;;;;;;2.93;2.73;;;18.90;99.90;;;;;;5109984;28;20198;-80
2023/07/27 11:41:54;;;;;;;3.77;3.20;;;18.90;99.90;;;;;;5110764;28;20348;-81
2023/07/27 11:44:23;;;;;;;4.10;3.40;;;19.00;99.90;;;;;;5109198;28;20630;-80
2023/07/27 11:46:52;;;;;;;5.27;4.80;;;18.90;99.90;;;;;;5109300;28;20293;-80
2023/07/27 11:49:21;;;;;;;3.27;2.97;;;19.00;99.90;;;;;;5117452;27;20296;-80
2023/07/27 11:51:49;;;;;;;3.00;2.80;;;19.10;99.90;;;;;;5130580;27;20205;-80
2023/07/27 11:54:27;;;;;;;7.30;3.30;;;19.20;99.90;;;;;;5129904;27;20775;-80
2023/07/27 11:56:56;;;;;;;3.27;2.97;;;19.20;99.90;;;;;;5131255;27;20208;-81
2023/07/27 11:59:23;;;;;;;3.00;2.80;;;19.10;99.90;;;;;;5130898;27;20240;-81
2023/07/27 12:01:51;;;;;;;3.27;2.97;;;19.20;99.90;;;;;;5130691;27;20574;-81
2023/07/27 12:04:18;;;;;;;4.00;3.10;;;19.20;99.90;;;;;;5130294;27;20212;-80
2023/07/27 12:06:45;;;;;;;3.57;3.03;;;19.30;99.90;;;;;;5130180;27;20235;-80
2023/07/27 12:09:12;;;;;;;5.17;3.00;;;19.30;99.90;;;;;;5130068;27;20334;-81
2023/07/27 12:11:40;;;;;;;3.50;3.30;;;19.30;99.90;;;;;;5129507;27;20288;-84
2023/07/27 12:14:09;;;;;;;3.30;2.70;;;19.10;99.90;;;;;;5128897;27;20324;-81
2023/07/27 12:16:40;;;;;;;3.07;2.80;;;19.00;99.90;;;;;;5129873;27;20209;-81
2023/07/27 12:19:07;;;;;;;3.83;2.70;;;19.00;99.90;;;;;;5136008;27;20287;-81
2023/07/27 12:21:35;;;;;;;3.30;2.97;;;19.10;99.90;;;;;;5150954;27;20200;-81
2023/07/27 12:24:03;;;;;;;5.30;3.30;;;19.10;99.90;;;;;;5139025;27;20292;-81
2023/07/27 12:26:30;;;;;;;3.97;3.20;;;19.10;99.90;;;;;;5129931;27;20667;-81
2023/07/27 12:28:58;;;;;;;4.00;2.83;;;19.20;99.90;;;;;;5128861;27;20221;-81
2023/07/27 12:31:25;;;;;;;3.40;3.17;;;19.30;99.90;;;;;;5129449;27;20292;-82
2023/07/27 12:33:52;;;;;;;5.23;3.40;;;19.20;99.90;;;;;;5129356;27;20277;-81
2023/07/27 12:36:19;;;;;;;3.03;2.70;;;19.20;99.90;;;;;;5129692;27;20302;-81
2023/07/27 12:38:47;;;;;;;3.13;2.83;;;19.30;99.90;;;;;;5129507;27;20564;-81
2023/07/27 12:41:14;;;;;;;3.50;2.70;;;19.30;99.90;;;;;;5128572;27;20209;-82
2023/07/27 12:43:41;;;;;;;3.73;3.43;;;19.30;99.90;;;;;;5128351;27;20213;-81
2023/07/27 12:46:10;;;;;;;4.13;3.10;;;19.30;99.90;;;;;;5128462;27;20566;-81
2023/07/27 12:48:37;;;;;;;3.83;3.53;;;19.30;99.90;;;;;;5130274;27;20213;-82
2023/07/27 12:51:04;;;;;;;3.53;3.07;;;19.40;99.90;;;;;;5140977;27;20216;-81
2023/07/27 12:53:31;;;;;;;3.93;3.47;;;19.40;99.90;;;;;;5129105;27;20347;-81